sensor_id;sensor_type;location;lat;lon;timestamp;pressure;altitude;pressure_sealevel;temperature;humidity
6090;BME280;3073;42.660;23.316;2023-04-02T00:01:50;93648.63;;;8.73;100.00
6090;BME280;3073;42.660;23.316;2023-04-02T00:04:18;93631.84;;;8.72;100.00
6090;BME280;3073;42.660;23.316;2023-04-02T00:06:53;93650.47;;;8.83;100.00
6090;BME280;3073;42.660;23.316;2023-04-02T00:09:29;93652.66;;;8.69;100.00
6090;BME280;3073;42.660;23.316;2023-04-02T00:12:11;93651.53;;;8.50;100.00
6090;BME280;3073;42.660;23.316;2023-04-02T00:14:44;93655.66;;;8.61;100.00
6090;BME280;3073;42.660;23.316;2023-04-02T00:17:12;93652.34;;;8.61;100.00
6090;BME280;3073;42.660;23.316;2023-04-02T00:19:44;93651.00;;;8.48;100.00
6090;BME280;3073;42.660;23.316;2023-04-02T00:22:15;93650.72;;;8.45;100.00
6090;BME280;3073;42.660;23.316;2023-04-02T00:24:49;93636.47;;;8.44;100.00
6090;BME280;3073;42.660;23.316;2023-04-02T00:27:16;93636.34;;;8.60;100.00
6090;BME280;3073;42.660;23.316;2023-04-02T00:29:47;93632.88;;;8.76;100.00
6090;BME280;3073;42.660;23.316;2023-04-02T00:32:22;93631.34;;;8.75;100.00
6090;BME280;3073;42.660;23.316;2023-04-02T00:34:50;93631.84;;;8.72;100.00
6090;BME280;3073;42.660;23.316;2023-04-02T00:37:19;93629.19;;;8.57;100.00
6090;BME280;3073;42.660;23.316;2023-04-02T00:39:57;93634.28;;;8.57;100.00
6090;BME280;3073;42.660;23.316;2023-04-02T00:42:27;93631.25;;;8.60;100.00
6090;BME280;3073;42.660;23.316;2023-04-02T00:44:56;93623.44;;;8.72;100.00
6090;BME280;3073;42.660;23.316;2023-04-02T00:47:25;93635.91;;;8.73;100.00
6090;BME280;3073;42.660;23.316;2023-04-02T00:49:57;93645.41;;;8.51;100.00
6090;BME280;3073;42.660;23.316;2023-04-02T00:52:27;93639.34;;;8.57;100.00
6090;BME280;3073;42.660;23.316;2023-04-02T00:55:02;93633.81;;;8.60;100.00
6090;BME280;3073;42.660;23.316;2023-04-02T00:57:30;93635.16;;;8.73;100.00
6090;BME280;3073;42.660;23.316;2023-04-02T01:00:00;93641.50;;;8.75;100.00
6090;BME280;3073;42.660;23.316;2023-04-02T01:02:33;93630.84;;;8.78;100.00
6090;BME280;3073;42.660;23.316;2023-04-02T01:05:19;93634.88;;;8.69;100.00
6090;BME280;3073;42.660;23.316;2023-04-02T01:07:56;93639.69;;;8.66;100.00
6090;BME280;3073;42.660;23.316;2023-04-02T01:10:39;93625.69;;;8.63;100.00
6090;BME280;3073;42.660;23.316;2023-04-02T01:13:15;93641.38;;;8.55;100.00
6090;BME280;3073;42.660;23.316;2023-04-02T01:15:49;93624.16;;;8.62;100.00
6090;BME280;3073;42.660;23.316;2023-04-02T01:18:43;93622.13;;;8.64;100.00
6090;BME280;3073;42.660;23.316;2023-04-02T01:21:27;93628.78;;;8.70;100.00
6090;BME280;3073;42.660;23.316;2023-04-02T01:24:02;93630.06;;;8.73;100.00
6090;BME280;3073;42.660;23.316;2023-04-02T01:26:55;93625.75;;;8.78;100.00
6090;BME280;3073;42.660;23.316;2023-04-02T01:29:30;93647.66;;;8.85;100.00
6090;BME280;3073;42.660;23.316;2023-04-02T01:32:00;93642.34;;;8.86;100.00
6090;BME280;3073;42.660;23.316;2023-04-02T01:34:29;93649.19;;;8.81;100.00
6090;BME280;3073;42.660;23.316;2023-04-02T01:37:14;93646.38;;;8.82;100.00
6090;BME280;3073;42.660;23.316;2023-04-02T01:39:56;93641.31;;;8.82;100.00
6090;BME280;3073;42.660;23.316;2023-04-02T01:42:30;93640.09;;;8.90;100.00
6090;BME280;3073;42.660;23.316;2023-04-02T01:45:01;93643.06;;;8.82;100.00
6090;BME280;3073;42.660;23.316;2023-04-02T01:47:29;93644.63;;;8.88;100.00
6090;BME280;3073;42.660;23.316;2023-04-02T01:49:57;93636.19;;;8.77;100.00
6090;BME280;3073;42.660;23.316;2023-04-02T01:52:35;93636.50;;;8.86;100.00
6090;BME280;3073;42.660;23.316;2023-04-02T01:55:02;93636.47;;;8.81;100.00
6090;BME280;3073;42.660;23.316;2023-04-02T01:57:30;93634.69;;;8.81;100.00
6090;BME280;3073;42.660;23.316;2023-04-02T01:59:59;93629.88;;;8.85;100.00
6090;BME280;3073;42.660;23.316;2023-04-02T02:02:32;93631.91;;;8.88;100.00
6090;BME280;3073;42.660;23.316;2023-04-02T02:05:03;93629.88;;;8.85;100.00
6090;BME280;3073;42.660;23.316;2023-04-02T02:07:29;93635.91;;;8.73;100.00
6090;BME280;3073;42.660;23.316;2023-04-02T02:10:04;93637.78;;;8.51;100.00
6090;BME280;3073;42.660;23.316;2023-04-02T02:12:31;93641.78;;;8.37;100.00
6090;BME280;3073;42.660;23.316;2023-04-02T02:15:00;93647.19;;;8.19;100.00
6090;BME280;3073;42.660;23.316;2023-04-02T02:17:29;93639.69;;;8.07;100.00
6090;BME280;3073;42.660;23.316;2023-04-02T02:19:59;93641.16;;;7.71;100.00
6090;BME280;3073;42.660;23.316;2023-04-02T02:22:32;93641.91;;;7.72;100.00
6090;BME280;3073;42.660;23.316;2023-04-02T02:25:03;93640.34;;;7.66;100.00
6090;BME280;3073;42.660;23.316;2023-04-02T02:27:52;93647.88;;;7.61;100.00
6090;BME280;3073;42.660;23.316;2023-04-02T02:30:26;93652.66;;;7.57;100.00
6090;BME280;3073;42.660;23.316;2023-04-02T02:32:59;93653.22;;;7.59;100.00
6090;BME280;3073;42.660;23.316;2023-04-02T02:35:31;93648.66;;;7.61;100.00
6090;BME280;3073;42.660;23.316;2023-04-02T02:38:10;93646.59;;;7.58;100.00
6090;BME280;3073;42.660;23.316;2023-04-02T02:40:42;93642.28;;;7.59;100.00
6090;BME280;3073;42.660;23.316;2023-04-02T02:43:12;93642.28;;;7.59;100.00
6090;BME280;3073;42.660;23.316;2023-04-02T02:45:43;93639.06;;;7.63;100.00
6090;BME280;3073;42.660;23.316;2023-04-02T02:48:13;93633.50;;;7.66;100.00
6090;BME280;3073;42.660;23.316;2023-04-02T02:50:42;93639.72;;;7.54;100.00
6090;BME280;3073;42.660;23.316;2023-04-02T02:53:16;93633.00;;;7.69;100.00
6090;BME280;3073;42.660;23.316;2023-04-02T02:55:44;93641.81;;;7.89;100.00
6090;BME280;3073;42.660;23.316;2023-04-02T02:58:14;93636.84;;;7.99;100.00
6090;BME280;3073;42.660;23.316;2023-04-02T03:00:43;93646.31;;;8.08;100.00
6090;BME280;3073;42.660;23.316;2023-04-02T03:03:13;93641.03;;;8.15;100.00
6090;BME280;3073;42.660;23.316;2023-04-02T03:05:43;93644.44;;;8.25;100.00
6090;BME280;3073;42.660;23.316;2023-04-02T03:08:16;93638.69;;;8.35;100.00
6090;BME280;3073;42.660;23.316;2023-04-02T03:10:49;93639.88;;;8.27;100.00
6090;BME280;3073;42.660;23.316;2023-04-02T03:13:31;93643.75;;;8.30;100.00
6090;BME280;3073;42.660;23.316;2023-04-02T03:16:09;93645.25;;;8.31;100.00
6090;BME280;3073;42.660;23.316;2023-04-02T03:18:42;93647.59;;;8.38;100.00
6090;BME280;3073;42.660;23.316;2023-04-02T03:21:21;93651.97;;;8.42;100.00
6090;BME280;3073;42.660;23.316;2023-04-02T03:23:53;93657.63;;;8.49;100.00
6090;BME280;3073;42.660;23.316;2023-04-02T03:26:24;93657.56;;;8.44;100.00
6090;BME280;3073;42.660;23.316;2023-04-02T03:28:57;93660.66;;;8.51;100.00
6090;BME280;3073;42.660;23.316;2023-04-02T03:31:31;93663.09;;;8.36;100.00
6090;BME280;3073;42.660;23.316;2023-04-02T03:34:03;93665.38;;;7.84;100.00
6090;BME280;3073;42.660;23.316;2023-04-02T03:36:35;93663.97;;;7.45;100.00
6090;BME280;3073;42.660;23.316;2023-04-02T03:39:12;93668.50;;;7.21;100.00
6090;BME280;3073;42.660;23.316;2023-04-02T03:41:43;93670.81;;;6.67;100.00
6090;BME280;3073;42.660;23.316;2023-04-02T03:44:18;93666.06;;;6.71;100.00
6090;BME280;3073;42.660;23.316;2023-04-02T03:46:51;93668.53;;;6.49;100.00
6090;BME280;3073;42.660;23.316;2023-04-02T03:49:27;93659.50;;;6.37;100.00
6090;BME280;3073;42.660;23.316;2023-04-02T03:51:59;93662.31;;;6.40;100.00
6090;BME280;3073;42.660;23.316;2023-04-02T03:54:28;93651.34;;;6.35;100.00
6090;BME280;3073;42.660;23.316;2023-04-02T03:56:56;93655.31;;;6.31;100.00
6090;BME280;3073;42.660;23.316;2023-04-02T03:59:29;93657.09;;;6.30;100.00
6090;BME280;3073;42.660;23.316;2023-04-02T04:02:09;93656.34;;;6.30;100.00
6090;BME280;3073;42.660;23.316;2023-04-02T04:04:39;93654.13;;;6.33;100.00
6090;BME280;3073;42.660;23.316;2023-04-02T04:07:14;93664.31;;;6.38;100.00
6090;BME280;3073;42.660;23.316;2023-04-02T04:09:45;93671.13;;;6.21;100.00
6090;BME280;3073;42.660;23.316;2023-04-02T04:12:23;93661.28;;;6.08;100.00
6090;BME280;3073;42.660;23.316;2023-04-02T04:14:55;93672.97;;;6.09;100.00
6090;BME280;3073;42.660;23.316;2023-04-02T04:17:30;93667.78;;;6.04;100.00
6090;BME280;3073;42.660;23.316;2023-04-02T04:20:02;93676.94;;;6.05;100.00
6090;BME280;3073;42.660;23.316;2023-04-02T04:22:34;93681.63;;;5.96;100.00
6090;BME280;3073;42.660;23.316;2023-04-02T04:25:04;93677.75;;;5.94;100.00
6090;BME280;3073;42.660;23.316;2023-04-02T04:27:35;93678.22;;;5.91;100.00
6090;BME280;3073;42.660;23.316;2023-04-02T04:30:15;93689.41;;;5.95;100.00
6090;BME280;3073;42.660;23.316;2023-04-02T04:32:49;93682.00;;;5.77;100.00
6090;BME280;3073;42.660;23.316;2023-04-02T04:35:25;93693.50;;;5.84;100.00
6090;BME280;3073;42.660;23.316;2023-04-02T04:37:56;93695.59;;;5.87;100.00
6090;BME280;3073;42.660;23.316;2023-04-02T04:40:27;93699.16;;;5.75;100.00
6090;BME280;3073;42.660;23.316;2023-04-02T04:42:59;93706.84;;;5.80;100.00
6090;BME280;3073;42.660;23.316;2023-04-02T04:45:38;93705.84;;;5.81;100.00
6090;BME280;3073;42.660;23.316;2023-04-02T04:48:14;93707.06;;;5.78;100.00
6090;BME280;3073;42.660;23.316;2023-04-02T04:50:48;93706.75;;;5.75;100.00
6090;BME280;3073;42.660;23.316;2023-04-02T04:53:19;93703.09;;;5.82;100.00
6090;BME280;3073;42.660;23.316;2023-04-02T04:55:47;93709.38;;;5.80;100.00
6090;BME280;3073;42.660;23.316;2023-04-02T04:58:20;93710.47;;;5.84;100.00
6090;BME280;3073;42.660;23.316;2023-04-02T05:00:55;93709.94;;;6.10;100.00
6090;BME280;3073;42.660;23.316;2023-04-02T05:03:29;93707.22;;;6.61;100.00
6090;BME280;3073;42.660;23.316;2023-04-02T05:06:07;93709.38;;;7.24;100.00
6090;BME280;3073;42.660;23.316;2023-04-02T05:08:36;93704.16;;;7.53;100.00
6090;BME280;3073;42.660;23.316;2023-04-02T05:11:09;93709.41;;;7.90;100.00
6090;BME280;3073;42.660;23.316;2023-04-02T05:13:43;93703.00;;;8.36;100.00
6090;BME280;3073;42.660;23.316;2023-04-02T05:16:21;93715.50;;;8.74;100.00
6090;BME280;3073;42.660;23.316;2023-04-02T05:19:03;93724.88;;;9.05;100.00
6090;BME280;3073;42.660;23.316;2023-04-02T05:21:37;93711.47;;;9.67;100.00
6090;BME280;3073;42.660;23.316;2023-04-02T05:24:31;93719.16;;;9.92;100.00
6090;BME280;3073;42.660;23.316;2023-04-02T05:27:12;93719.81;;;10.29;100.00
6090;BME280;3073;42.660;23.316;2023-04-02T05:29:43;93718.53;;;11.03;100.00
6090;BME280;3073;42.660;23.316;2023-04-02T05:32:16;93726.44;;;10.61;100.00
6090;BME280;3073;42.660;23.316;2023-04-02T05:34:50;93721.09;;;10.42;100.00
6090;BME280;3073;42.660;23.316;2023-04-02T05:37:21;93734.59;;;10.48;100.00
6090;BME280;3073;42.660;23.316;2023-04-02T05:39:54;93734.09;;;10.71;100.00
6090;BME280;3073;42.660;23.316;2023-04-02T05:42:22;93740.78;;;10.87;100.00
6090;BME280;3073;42.660;23.316;2023-04-02T05:45:07;93733.69;;;11.83;100.00
6090;BME280;3073;42.660;23.316;2023-04-02T05:47:42;93735.00;;;12.30;100.00
6090;BME280;3073;42.660;23.316;2023-04-02T05:50:18;93728.09;;;12.69;91.60
6090;BME280;3073;42.660;23.316;2023-04-02T05:52:49;93729.06;;;12.39;93.68
6090;BME280;3073;42.660;23.316;2023-04-02T05:55:29;93741.84;;;12.78;93.66
6090;BME280;3073;42.660;23.316;2023-04-02T05:58:03;93744.75;;;13.01;86.03
6090;BME280;3073;42.660;23.316;2023-04-02T06:00:48;93747.41;;;13.48;80.84
6090;BME280;3073;42.660;23.316;2023-04-02T06:03:23;93743.34;;;13.71;80.69
6090;BME280;3073;42.660;23.316;2023-04-02T06:05:55;93747.56;;;13.33;78.81
6090;BME280;3073;42.660;23.316;2023-04-02T06:08:26;93743.13;;;12.76;82.75
6090;BME280;3073;42.660;23.316;2023-04-02T06:11:00;93747.50;;;12.75;84.81
6090;BME280;3073;42.660;23.316;2023-04-02T06:13:30;93752.50;;;13.53;80.44
6090;BME280;3073;42.660;23.316;2023-04-02T06:15:57;93742.56;;;13.70;78.25
6090;BME280;3073;42.660;23.316;2023-04-02T06:18:24;93740.97;;;14.40;75.56
6090;BME280;3073;42.660;23.316;2023-04-02T06:20:54;93743.13;;;14.28;74.01
6090;BME280;3073;42.660;23.316;2023-04-02T06:23:27;93747.16;;;14.16;73.84
6090;BME280;3073;42.660;23.316;2023-04-02T06:26:03;93752.88;;;13.65;77.19
6090;BME280;3073;42.660;23.316;2023-04-02T06:28:43;93748.78;;;13.07;78.96
6090;BME280;3073;42.660;23.316;2023-04-02T06:31:23;93754.34;;;13.19;81.74
6090;BME280;3073;42.660;23.316;2023-04-02T06:33:52;93750.63;;;12.67;83.00
6090;BME280;3073;42.660;23.316;2023-04-02T06:36:22;93746.72;;;12.36;85.14
6090;BME280;3073;42.660;23.316;2023-04-02T06:38:49;93751.25;;;12.00;89.62
6090;BME280;3073;42.660;23.316;2023-04-02T06:41:21;93744.63;;;12.82;88.44
6090;BME280;3073;42.660;23.316;2023-04-02T06:43:51;93745.88;;;12.84;78.42
6090;BME280;3073;42.660;23.316;2023-04-02T06:46:24;93745.72;;;13.05;74.57
6090;BME280;3073;42.660;23.316;2023-04-02T06:48:55;93757.84;;;13.80;73.59
6090;BME280;3073;42.660;23.316;2023-04-02T06:51:26;93755.75;;;14.67;70.71
6090;BME280;3073;42.660;23.316;2023-04-02T06:53:54;93750.97;;;15.58;66.00
6090;BME280;3073;42.660;23.316;2023-04-02T06:56:33;93761.59;;;16.33;62.93
6090;BME280;3073;42.660;23.316;2023-04-02T06:59:02;93760.44;;;16.39;61.44
6090;BME280;3073;42.660;23.316;2023-04-02T07:01:35;93759.19;;;16.50;62.13
6090;BME280;3073;42.660;23.316;2023-04-02T07:04:04;93772.84;;;16.37;60.39
6090;BME280;3073;42.660;23.316;2023-04-02T07:06:33;93765.19;;;16.81;59.71
6090;BME280;3073;42.660;23.316;2023-04-02T07:09:00;93764.50;;;16.89;57.79
6090;BME280;3073;42.660;23.316;2023-04-02T07:11:27;93760.78;;;16.60;58.09
6090;BME280;3073;42.660;23.316;2023-04-02T07:13:54;93768.47;;;16.73;58.65
6090;BME280;3073;42.660;23.316;2023-04-02T07:16:22;93772.03;;;16.01;57.31
6090;BME280;3073;42.660;23.316;2023-04-02T07:18:51;93769.31;;;16.19;57.56
6090;BME280;3073;42.660;23.316;2023-04-02T07:21:19;93770.41;;;16.54;57.37
6090;BME280;3073;42.660;23.316;2023-04-02T07:23:48;93773.44;;;16.70;54.81
6090;BME280;3073;42.660;23.316;2023-04-02T07:26:18;93784.25;;;16.58;55.20
6090;BME280;3073;42.660;23.316;2023-04-02T07:28:46;93772.13;;;16.45;56.70
6090;BME280;3073;42.660;23.316;2023-04-02T07:31:15;93788.28;;;17.31;56.31
6090;BME280;3073;42.660;23.316;2023-04-02T07:33:43;93784.16;;;17.74;54.18
6090;BME280;3073;42.660;23.316;2023-04-02T07:36:15;93783.78;;;18.55;52.60
6090;BME280;3073;42.660;23.316;2023-04-02T07:38:46;93783.38;;;18.22;52.21
6090;BME280;3073;42.660;23.316;2023-04-02T07:41:15;93787.13;;;16.92;51.71
6090;BME280;3073;42.660;23.316;2023-04-02T07:43:44;93789.34;;;16.85;52.81
6090;BME280;3073;42.660;23.316;2023-04-02T07:46:12;93787.00;;;15.07;53.53
6090;BME280;3073;42.660;23.316;2023-04-02T07:48:41;93794.38;;;14.76;54.13
6090;BME280;3073;42.660;23.316;2023-04-02T07:51:14;93778.34;;;14.65;55.52
6090;BME280;3073;42.660;23.316;2023-04-02T07:53:42;93780.97;;;14.41;56.62
6090;BME280;3073;42.660;23.316;2023-04-02T07:56:15;93784.09;;;14.76;55.69
6090;BME280;3073;42.660;23.316;2023-04-02T07:58:42;93780.97;;;14.79;56.04
6090;BME280;3073;42.660;23.316;2023-04-02T08:01:15;93780.19;;;16.30;53.52
6090;BME280;3073;42.660;23.316;2023-04-02T08:03:42;93784.84;;;17.66;50.72
6090;BME280;3073;42.660;23.316;2023-04-02T08:06:09;93780.72;;;17.57;49.43
6090;BME280;3073;42.660;23.316;2023-04-02T08:08:36;93784.81;;;17.35;50.92
6090;BME280;3073;42.660;23.316;2023-04-02T08:11:03;93795.91;;;16.15;51.68
6090;BME280;3073;42.660;23.316;2023-04-02T08:13:32;93800.59;;;15.99;53.40
6090;BME280;3073;42.660;23.316;2023-04-02T08:15:59;93804.78;;;15.68;53.63
6090;BME280;3073;42.660;23.316;2023-04-02T08:18:26;93801.34;;;15.72;54.46
6090;BME280;3073;42.660;23.316;2023-04-02T08:20:54;93797.75;;;16.14;52.50
6090;BME280;3073;42.660;23.316;2023-04-02T08:23:21;93798.59;;;16.23;52.59
6090;BME280;3073;42.660;23.316;2023-04-02T08:25:49;93800.22;;;17.05;50.57
6090;BME280;3073;42.660;23.316;2023-04-02T08:28:16;93805.28;;;17.32;51.14
6090;BME280;3073;42.660;23.316;2023-04-02T08:30:44;93801.34;;;16.40;51.70
6090;BME280;3073;42.660;23.316;2023-04-02T08:33:13;93808.09;;;15.36;52.67
6090;BME280;3073;42.660;23.316;2023-04-02T08:35:40;93806.50;;;16.27;51.41
6090;BME280;3073;42.660;23.316;2023-04-02T08:38:08;93806.00;;;17.24;50.28
6090;BME280;3073;42.660;23.316;2023-04-02T08:40:37;93805.50;;;16.99;49.99
6090;BME280;3073;42.660;23.316;2023-04-02T08:43:16;93810.94;;;17.42;48.73
6090;BME280;3073;42.660;23.316;2023-04-02T08:45:57;93807.59;;;18.43;46.77
6090;BME280;3073;42.660;23.316;2023-04-02T08:48:29;93803.25;;;18.86;46.86
6090;BME280;3073;42.660;23.316;2023-04-02T08:50:58;93805.94;;;18.47;48.24
6090;BME280;3073;42.660;23.316;2023-04-02T08:53:28;93802.19;;;19.13;46.23
6090;BME280;3073;42.660;23.316;2023-04-02T08:56:01;93800.66;;;20.60;43.92
6090;BME280;3073;42.660;23.316;2023-04-02T08:58:38;93796.31;;;20.14;43.57
6090;BME280;3073;42.660;23.316;2023-04-02T09:01:18;93808.00;;;19.91;43.64
6090;BME280;3073;42.660;23.316;2023-04-02T09:03:56;93806.44;;;18.83;43.94
6090;BME280;3073;42.660;23.316;2023-04-02T09:06:24;93805.38;;;19.27;43.76
6090;BME280;3073;42.660;23.316;2023-04-02T09:08:53;93801.16;;;20.16;41.99
6090;BME280;3073;42.660;23.316;2023-04-02T09:11:23;93805.53;;;19.94;42.44
6090;BME280;3073;42.660;23.316;2023-04-02T09:13:54;93798.94;;;20.05;40.89
6090;BME280;3073;42.660;23.316;2023-04-02T09:16:33;93797.09;;;20.44;41.48
6090;BME280;3073;42.660;23.316;2023-04-02T09:19:13;93802.16;;;20.02;40.79
6090;BME280;3073;42.660;23.316;2023-04-02T09:21:43;93803.25;;;21.01;40.46
6090;BME280;3073;42.660;23.316;2023-04-02T09:24:13;93799.69;;;21.60;39.36
6090;BME280;3073;42.660;23.316;2023-04-02T09:26:40;93803.78;;;22.54;37.45
6090;BME280;3073;42.660;23.316;2023-04-02T09:29:35;93794.16;;;22.42;37.15
6090;BME280;3073;42.660;23.316;2023-04-02T09:32:18;93793.88;;;21.09;39.20
6090;BME280;3073;42.660;23.316;2023-04-02T09:34:47;93794.25;;;19.35;40.71
6090;BME280;3073;42.660;23.316;2023-04-02T09:37:16;93793.13;;;17.85;43.36
6090;BME280;3073;42.660;23.316;2023-04-02T09:39:44;93787.03;;;18.29;42.70
6090;BME280;3073;42.660;23.316;2023-04-02T09:42:28;93785.56;;;17.58;44.32
6090;BME280;3073;42.660;23.316;2023-04-02T09:45:11;93786.38;;;18.72;42.56
6090;BME280;3073;42.660;23.316;2023-04-02T09:47:41;93797.25;;;17.95;43.51
6090;BME280;3073;42.660;23.316;2023-04-02T09:50:24;93786.22;;;18.12;43.28
6090;BME280;3073;42.660;23.316;2023-04-02T09:52:52;93776.66;;;17.64;42.99
6090;BME280;3073;42.660;23.316;2023-04-02T09:55:22;93776.19;;;18.01;44.89
6090;BME280;3073;42.660;23.316;2023-04-02T09:58:06;93782.13;;;17.40;45.09
6090;BME280;3073;42.660;23.316;2023-04-02T10:00:33;93780.25;;;16.38;44.72
6090;BME280;3073;42.660;23.316;2023-04-02T10:03:18;93783.13;;;15.55;46.21
6090;BME280;3073;42.660;23.316;2023-04-02T10:05:45;93771.81;;;16.11;45.65
6090;BME280;3073;42.660;23.316;2023-04-02T10:08:18;93774.03;;;16.53;44.95
6090;BME280;3073;42.660;23.316;2023-04-02T10:10:48;93767.00;;;16.45;45.16
6090;BME280;3073;42.660;23.316;2023-04-02T10:13:20;93771.81;;;16.96;44.78
6090;BME280;3073;42.660;23.316;2023-04-02T10:15:53;93770.22;;;17.84;43.81
6090;BME280;3073;42.660;23.316;2023-04-02T10:18:32;93763.53;;;17.91;43.08
6090;BME280;3073;42.660;23.316;2023-04-02T10:21:03;93759.69;;;18.28;43.09
6090;BME280;3073;42.660;23.316;2023-04-02T10:23:31;93754.56;;;18.37;42.28
6090;BME280;3073;42.660;23.316;2023-04-02T10:26:05;93753.06;;;18.62;42.45
6090;BME280;3073;42.660;23.316;2023-04-02T10:28:46;93757.81;;;19.75;41.07
6090;BME280;3073;42.660;23.316;2023-04-02T10:31:20;93754.47;;;20.03;41.33
6090;BME280;3073;42.660;23.316;2023-04-02T10:33:56;93755.81;;;18.99;42.97
6090;BME280;3073;42.660;23.316;2023-04-02T10:36:38;93763.09;;;19.78;43.10
6090;BME280;3073;42.660;23.316;2023-04-02T10:39:13;93763.78;;;21.62;41.29
6090;BME280;3073;42.660;23.316;2023-04-02T10:41:46;93766.94;;;21.79;40.64
6090;BME280;3073;42.660;23.316;2023-04-02T10:44:27;93761.44;;;21.24;41.11
6090;BME280;3073;42.660;23.316;2023-04-02T10:47:06;93760.69;;;20.40;42.54
6090;BME280;3073;42.660;23.316;2023-04-02T10:49:40;93757.00;;;19.19;44.12
6090;BME280;3073;42.660;23.316;2023-04-02T10:52:09;93758.81;;;19.27;44.58
6090;BME280;3073;42.660;23.316;2023-04-02T10:54:43;93752.91;;;18.92;44.96
6090;BME280;3073;42.660;23.316;2023-04-02T10:57:23;93749.44;;;18.80;44.12
6090;BME280;3073;42.660;23.316;2023-04-02T10:59:56;93747.56;;;18.46;44.53
6090;BME280;3073;42.660;23.316;2023-04-02T11:02:30;93752.34;;;17.96;45.39
6090;BME280;3073;42.660;23.316;2023-04-02T11:05:10;93749.44;;;18.71;43.87
6090;BME280;3073;42.660;23.316;2023-04-02T11:07:59;93744.72;;;19.71;43.58
6090;BME280;3073;42.660;23.316;2023-04-02T11:10:37;93740.97;;;20.19;42.40
6090;BME280;3073;42.660;23.316;2023-04-02T11:13:14;93746.56;;;20.29;42.82
6090;BME280;3073;42.660;23.316;2023-04-02T11:15:57;93753.81;;;21.19;40.89
6090;BME280;3073;42.660;23.316;2023-04-02T11:18:28;93746.91;;;19.52;42.95
6090;BME280;3073;42.660;23.316;2023-04-02T11:21:06;93743.47;;;19.14;43.71
6090;BME280;3073;42.660;23.316;2023-04-02T11:23:53;93748.19;;;18.34;45.12
6090;BME280;3073;42.660;23.316;2023-04-02T11:26:38;93751.00;;;18.16;44.89
6090;BME280;3073;42.660;23.316;2023-04-02T11:29:24;93751.97;;;19.23;43.36
6090;BME280;3073;42.660;23.316;2023-04-02T11:37:59;93736.34;;;20.33;41.19
6090;BME280;3073;42.660;23.316;2023-04-02T11:40:46;93733.56;;;20.38;40.98
6090;BME280;3073;42.660;23.316;2023-04-02T11:43:48;93729.31;;;21.97;38.33
6090;BME280;3073;42.660;23.316;2023-04-02T11:46:44;93728.84;;;21.59;38.68
6090;BME280;3073;42.660;23.316;2023-04-02T11:49:39;93730.50;;;19.31;41.28
6090;BME280;3073;42.660;23.316;2023-04-02T11:52:20;93726.91;;;18.89;42.05
6090;BME280;3073;42.660;23.316;2023-04-02T11:54:57;93729.91;;;19.80;41.46
6090;BME280;3073;42.660;23.316;2023-04-02T12:04:32;93734.72;;;22.17;38.03
6090;BME280;3073;42.660;23.316;2023-04-02T12:07:24;93731.91;;;22.10;38.37
6090;BME280;3073;42.660;23.316;2023-04-02T12:10:02;93729.09;;;22.15;37.61
6090;BME280;3073;42.660;23.316;2023-04-02T12:12:33;93716.50;;;22.81;37.36
6090;BME280;3073;42.660;23.316;2023-04-02T12:15:03;93713.00;;;23.17;36.52
6090;BME280;3073;42.660;23.316;2023-04-02T12:17:33;93718.28;;;22.00;38.39
6090;BME280;3073;42.660;23.316;2023-04-02T12:20:16;93725.41;;;22.16;37.38
6090;BME280;3073;42.660;23.316;2023-04-02T12:22:48;93723.41;;;22.49;36.58
6090;BME280;3073;42.660;23.316;2023-04-02T12:25:25;93718.09;;;23.41;36.72
6090;BME280;3073;42.660;23.316;2023-04-02T12:28:04;93725.50;;;22.83;36.97
6090;BME280;3073;42.660;23.316;2023-04-02T12:30:33;93732.44;;;21.22;37.82
6090;BME280;3073;42.660;23.316;2023-04-02T12:33:20;93725.59;;;21.50;37.73
6090;BME280;3073;42.660;23.316;2023-04-02T12:35:56;93714.78;;;19.91;39.27
6090;BME280;3073;42.660;23.316;2023-04-02T12:38:25;93713.06;;;20.86;38.61
6090;BME280;3073;42.660;23.316;2023-04-02T12:40:56;93717.13;;;21.41;37.96
6090;BME280;3073;42.660;23.316;2023-04-02T12:43:24;93704.91;;;20.14;38.80
6090;BME280;3073;42.660;23.316;2023-04-02T12:45:53;93718.72;;;21.90;38.30
6090;BME280;3073;42.660;23.316;2023-04-02T12:48:21;93722.16;;;22.06;36.72
6090;BME280;3073;42.660;23.316;2023-04-02T12:50:50;93697.84;;;20.43;38.48
6090;BME280;3073;42.660;23.316;2023-04-02T12:53:20;93703.31;;;20.00;39.80
6090;BME280;3073;42.660;23.316;2023-04-02T12:55:49;93691.81;;;20.72;38.76
6090;BME280;3073;42.660;23.316;2023-04-02T12:58:27;93696.72;;;21.76;37.61
6090;BME280;3073;42.660;23.316;2023-04-02T13:01:15;93696.28;;;21.04;37.56
6090;BME280;3073;42.660;23.316;2023-04-02T13:03:43;93695.41;;;21.58;37.62
6090;BME280;3073;42.660;23.316;2023-04-02T13:06:27;93696.84;;;22.03;36.56
6090;BME280;3073;42.660;23.316;2023-04-02T13:08:55;93699.47;;;21.91;36.24
6090;BME280;3073;42.660;23.316;2023-04-02T13:11:32;93691.38;;;23.00;35.99
6090;BME280;3073;42.660;23.316;2023-04-02T13:14:02;93686.94;;;22.73;35.32
6090;BME280;3073;42.660;23.316;2023-04-02T13:16:35;93693.41;;;22.51;35.89
6090;BME280;3073;42.660;23.316;2023-04-02T13:19:17;93694.88;;;22.13;35.82
6090;BME280;3073;42.660;23.316;2023-04-02T13:21:46;93685.19;;;22.65;35.32
6090;BME280;3073;42.660;23.316;2023-04-02T13:24:17;93688.44;;;23.02;34.65
6090;BME280;3073;42.660;23.316;2023-04-02T13:26:44;93693.66;;;21.62;36.49
6090;BME280;3073;42.660;23.316;2023-04-02T13:29:23;93692.25;;;21.28;36.67
6090;BME280;3073;42.660;23.316;2023-04-02T13:31:51;93689.69;;;20.74;37.66
6090;BME280;3073;42.660;23.316;2023-04-02T13:34:18;93695.81;;;21.02;37.22
6090;BME280;3073;42.660;23.316;2023-04-02T13:36:46;93694.19;;;21.43;36.56
6090;BME280;3073;42.660;23.316;2023-04-02T13:39:13;93689.31;;;20.96;36.85
6090;BME280;3073;42.660;23.316;2023-04-02T13:41:41;93688.78;;;20.08;38.53
6090;BME280;3073;42.660;23.316;2023-04-02T13:44:18;93683.69;;;19.62;38.58
6090;BME280;3073;42.660;23.316;2023-04-02T13:46:46;93685.91;;;19.25;39.44
6090;BME280;3073;42.660;23.316;2023-04-02T13:49:13;93686.47;;;19.57;39.22
6090;BME280;3073;42.660;23.316;2023-04-02T13:51:42;93682.84;;;18.68;39.90
6090;BME280;3073;42.660;23.316;2023-04-02T13:54:15;93688.78;;;17.30;41.20
6090;BME280;3073;42.660;23.316;2023-04-02T13:56:43;93693.88;;;17.52;41.12